Orléans-Saint-Denis-de-l'Hôtel Airport

Airport
ICAO code: 
LFOZ
Summary
ICAO Region: 
EUR
Territory: 
Location: 
, Centre
Serving: 
Orleans
Elevation: 
396 ft
Coordinates: 
Aerial View: 
47° 53' 49.006" N, 2° 9' 47.999" E
Metar
Observation
LFOZ 300500Z AUTO 23007KT 9999 FEW034 OVC056 01/00 Q1021
Station
Orléans - Saint-Denis-de-l'Hôtel
Date/Time
2021-11-30 05:00:00
Wind direction
230°
Wind speed
07 kts
Lowest cloud amount
few clouds
Temperature
1°C
Dew point
0°C
Humidity
93%
QNH
1021 hPa
Weather condition
n/a

Runways

Designator Length Width Surface Rops
5/23 1392 30 ASP No/No
Airport map: 
Aerial View: 

SKYbrary Partners:

Safety knowledge contributed by: